sensor_id;sensor_type;location;lat;lon;timestamp;temperature;humidity
42905;DHT22;28550;51.228;4.528;2024-01-30T00:00:39;7.00;99.90
42905;DHT22;28550;51.228;4.528;2024-01-30T00:03:06;7.00;99.90
42905;DHT22;28550;51.228;4.528;2024-01-30T00:05:36;7.10;99.90
42905;DHT22;28550;51.228;4.528;2024-01-30T00:08:05;7.10;99.90
42905;DHT22;28550;51.228;4.528;2024-01-30T00:10:38;7.20;99.90
42905;DHT22;28550;51.228;4.528;2024-01-30T00:13:05;7.30;99.90
42905;DHT22;28550;51.228;4.528;2024-01-30T00:15:36;7.40;99.90
42905;DHT22;28550;51.228;4.528;2024-01-30T00:18:02;7.60;99.90
42905;DHT22;28550;51.228;4.528;2024-01-30T00:20:29;7.70;99.90
42905;DHT22;28550;51.228;4.528;2024-01-30T00:22:57;7.80;99.90
42905;DHT22;28550;51.228;4.528;2024-01-30T00:25:24;7.90;99.90
42905;DHT22;28550;51.228;4.528;2024-01-30T00:27:51;7.90;99.90
42905;DHT22;28550;51.228;4.528;2024-01-30T00:30:20;7.90;99.90
42905;DHT22;28550;51.228;4.528;2024-01-30T00:32:47;8.00;99.90
42905;DHT22;28550;51.228;4.528;2024-01-30T00:35:13;8.00;99.90
42905;DHT22;28550;51.228;4.528;2024-01-30T00:37:39;7.90;99.90
42905;DHT22;28550;51.228;4.528;2024-01-30T00:40:10;7.90;99.90
42905;DHT22;28550;51.228;4.528;2024-01-30T00:42:44;7.80;99.90
42905;DHT22;28550;51.228;4.528;2024-01-30T00:45:15;7.90;99.90
42905;DHT22;28550;51.228;4.528;2024-01-30T00:47:44;7.90;99.90
42905;DHT22;28550;51.228;4.528;2024-01-30T00:50:11;7.90;99.90
42905;DHT22;28550;51.228;4.528;2024-01-30T00:52:40;8.00;99.90
42905;DHT22;28550;51.228;4.528;2024-01-30T00:55:07;7.90;99.90
42905;DHT22;28550;51.228;4.528;2024-01-30T00:57:33;7.80;99.90
42905;DHT22;28550;51.228;4.528;2024-01-30T02:10:10;7.00;99.90
42905;DHT22;28550;51.228;4.528;2024-01-30T02:12:37;7.00;99.90
42905;DHT22;28550;51.228;4.528;2024-01-30T02:15:07;7.00;99.90
42905;DHT22;28550;51.228;4.528;2024-01-30T02:17:38;6.90;99.90
42905;DHT22;28550;51.228;4.528;2024-01-30T02:20:27;6.90;99.90
42905;DHT22;28550;51.228;4.528;2024-01-30T02:22:56;7.00;99.90
42905;DHT22;28550;51.228;4.528;2024-01-30T02:25:38;6.80;99.90
42905;DHT22;28550;51.228;4.528;2024-01-30T02:28:21;6.90;99.90
42905;DHT22;28550;51.228;4.528;2024-01-30T02:30:49;7.00;99.90
42905;DHT22;28550;51.228;4.528;2024-01-30T02:33:21;6.90;99.90
42905;DHT22;28550;51.228;4.528;2024-01-30T02:35:51;6.90;99.90
42905;DHT22;28550;51.228;4.528;2024-01-30T02:38:17;6.90;99.90
42905;DHT22;28550;51.228;4.528;2024-01-30T02:40:45;6.80;99.90
42905;DHT22;28550;51.228;4.528;2024-01-30T02:43:24;6.90;99.90
42905;DHT22;28550;51.228;4.528;2024-01-30T02:46:06;6.90;99.90
42905;DHT22;28550;51.228;4.528;2024-01-30T02:48:36;6.90;99.90
42905;DHT22;28550;51.228;4.528;2024-01-30T02:51:13;7.00;99.90
42905;DHT22;28550;51.228;4.528;2024-01-30T02:53:44;7.00;99.90
42905;DHT22;28550;51.228;4.528;2024-01-30T02:56:09;7.00;99.90
42905;DHT22;28550;51.228;4.528;2024-01-30T02:58:48;7.00;99.90
42905;DHT22;28550;51.228;4.528;2024-01-30T03:01:14;7.00;99.90
42905;DHT22;28550;51.228;4.528;2024-01-30T03:03:42;7.10;99.90
42905;DHT22;28550;51.228;4.528;2024-01-30T03:06:08;7.10;99.90
42905;DHT22;28550;51.228;4.528;2024-01-30T03:08:36;7.10;99.90
42905;DHT22;28550;51.228;4.528;2024-01-30T03:11:14;7.20;99.90
42905;DHT22;28550;51.228;4.528;2024-01-30T03:13:40;7.30;99.90
42905;DHT22;28550;51.228;4.528;2024-01-30T03:16:08;7.30;99.90
42905;DHT22;28550;51.228;4.528;2024-01-30T03:18:34;7.40;99.90
42905;DHT22;28550;51.228;4.528;2024-01-30T03:21:00;7.40;99.90
42905;DHT22;28550;51.228;4.528;2024-01-30T03:23:27;7.40;99.90
42905;DHT22;28550;51.228;4.528;2024-01-30T03:25:54;7.50;99.90
42905;DHT22;28550;51.228;4.528;2024-01-30T03:28:20;7.50;99.90
42905;DHT22;28550;51.228;4.528;2024-01-30T03:30:46;7.50;99.90
42905;DHT22;28550;51.228;4.528;2024-01-30T03:33:13;7.40;99.90
42905;DHT22;28550;51.228;4.528;2024-01-30T03:35:38;7.50;99.90
42905;DHT22;28550;51.228;4.528;2024-01-30T03:38:05;7.60;99.90
42905;DHT22;28550;51.228;4.528;2024-01-30T03:40:31;7.60;99.90
42905;DHT22;28550;51.228;4.528;2024-01-30T03:42:57;7.60;99.90
42905;DHT22;28550;51.228;4.528;2024-01-30T03:45:23;7.70;99.90
42905;DHT22;28550;51.228;4.528;2024-01-30T03:47:49;7.60;99.90
42905;DHT22;28550;51.228;4.528;2024-01-30T03:50:15;7.60;99.90
42905;DHT22;28550;51.228;4.528;2024-01-30T03:52:43;7.60;99.90
42905;DHT22;28550;51.228;4.528;2024-01-30T03:55:09;7.50;99.90
42905;DHT22;28550;51.228;4.528;2024-01-30T03:57:34;7.50;99.90
42905;DHT22;28550;51.228;4.528;2024-01-30T04:00:01;7.50;99.90
42905;DHT22;28550;51.228;4.528;2024-01-30T04:02:31;7.50;99.90
42905;DHT22;28550;51.228;4.528;2024-01-30T04:04:57;7.60;99.90
42905;DHT22;28550;51.228;4.528;2024-01-30T04:07:24;7.50;99.90
42905;DHT22;28550;51.228;4.528;2024-01-30T04:09:50;7.50;99.90
42905;DHT22;28550;51.228;4.528;2024-01-30T04:12:17;7.50;99.90
42905;DHT22;28550;51.228;4.528;2024-01-30T04:14:46;7.70;99.90
42905;DHT22;28550;51.228;4.528;2024-01-30T04:17:12;7.70;99.90
42905;DHT22;28550;51.228;4.528;2024-01-30T04:19:40;7.70;99.90
42905;DHT22;28550;51.228;4.528;2024-01-30T04:22:07;7.80;99.90
42905;DHT22;28550;51.228;4.528;2024-01-30T04:24:34;7.90;99.90
42905;DHT22;28550;51.228;4.528;2024-01-30T04:27:02;7.90;99.90
42905;DHT22;28550;51.228;4.528;2024-01-30T04:29:29;7.90;99.90
42905;DHT22;28550;51.228;4.528;2024-01-30T04:31:56;7.90;99.90
42905;DHT22;28550;51.228;4.528;2024-01-30T04:34:22;8.00;99.90
42905;DHT22;28550;51.228;4.528;2024-01-30T04:36:51;7.90;99.90
42905;DHT22;28550;51.228;4.528;2024-01-30T04:39:18;7.90;99.90
42905;DHT22;28550;51.228;4.528;2024-01-30T04:41:49;7.90;99.90
42905;DHT22;28550;51.228;4.528;2024-01-30T04:44:29;8.10;99.90
42905;DHT22;28550;51.228;4.528;2024-01-30T04:46:57;8.30;99.90
42905;DHT22;28550;51.228;4.528;2024-01-30T04:49:30;8.40;99.90
42905;DHT22;28550;51.228;4.528;2024-01-30T04:51:58;8.60;99.90
42905;DHT22;28550;51.228;4.528;2024-01-30T04:54:37;8.90;99.90
42905;DHT22;28550;51.228;4.528;2024-01-30T04:57:05;9.10;99.90
42905;DHT22;28550;51.228;4.528;2024-01-30T04:59:37;9.10;99.90
42905;DHT22;28550;51.228;4.528;2024-01-30T05:02:14;9.20;99.90
42905;DHT22;28550;51.228;4.528;2024-01-30T05:04:45;9.30;99.90
42905;DHT22;28550;51.228;4.528;2024-01-30T05:07:17;9.40;99.90
42905;DHT22;28550;51.228;4.528;2024-01-30T05:09:45;9.40;99.90
42905;DHT22;28550;51.228;4.528;2024-01-30T05:12:15;9.40;99.90
42905;DHT22;28550;51.228;4.528;2024-01-30T05:14:42;9.40;99.90
42905;DHT22;28550;51.228;4.528;2024-01-30T05:17:07;9.60;99.90
42905;DHT22;28550;51.228;4.528;2024-01-30T05:19:40;9.60;99.90
42905;DHT22;28550;51.228;4.528;2024-01-30T05:22:07;9.80;99.90
42905;DHT22;28550;51.228;4.528;2024-01-30T05:24:34;9.70;99.90
42905;DHT22;28550;51.228;4.528;2024-01-30T05:27:02;9.60;99.90
42905;DHT22;28550;51.228;4.528;2024-01-30T05:29:30;9.80;99.90
42905;DHT22;28550;51.228;4.528;2024-01-30T05:31:55;10.00;99.90
42905;DHT22;28550;51.228;4.528;2024-01-30T05:34:22;10.10;99.90
42905;DHT22;28550;51.228;4.528;2024-01-30T05:36:48;10.00;99.90
42905;DHT22;28550;51.228;4.528;2024-01-30T05:39:16;9.90;99.90
42905;DHT22;28550;51.228;4.528;2024-01-30T05:41:50;10.00;99.90
42905;DHT22;28550;51.228;4.528;2024-01-30T05:44:19;10.10;99.90
42905;DHT22;28550;51.228;4.528;2024-01-30T05:46:44;10.20;99.90
42905;DHT22;28550;51.228;4.528;2024-01-30T05:49:13;10.20;99.90
42905;DHT22;28550;51.228;4.528;2024-01-30T05:51:39;10.20;99.90
42905;DHT22;28550;51.228;4.528;2024-01-30T05:54:04;10.30;99.90
42905;DHT22;28550;51.228;4.528;2024-01-30T05:56:30;10.20;99.90
42905;DHT22;28550;51.228;4.528;2024-01-30T05:58:56;10.20;99.90
42905;DHT22;28550;51.228;4.528;2024-01-30T06:01:31;10.20;99.90
42905;DHT22;28550;51.228;4.528;2024-01-30T06:04:07;10.30;99.90
42905;DHT22;28550;51.228;4.528;2024-01-30T06:06:54;10.40;99.90
42905;DHT22;28550;51.228;4.528;2024-01-30T06:09:23;10.60;99.90
42905;DHT22;28550;51.228;4.528;2024-01-30T06:11:50;10.50;98.90
42905;DHT22;28550;51.228;4.528;2024-01-30T06:14:21;10.40;99.40
42905;DHT22;28550;51.228;4.528;2024-01-30T06:16:47;10.40;99.90
42905;DHT22;28550;51.228;4.528;2024-01-30T06:19:17;10.50;98.10
42905;DHT22;28550;51.228;4.528;2024-01-30T06:21:42;10.60;95.40
42905;DHT22;28550;51.228;4.528;2024-01-30T06:24:11;10.60;95.50
42905;DHT22;28550;51.228;4.528;2024-01-30T06:26:41;10.50;97.20
42905;DHT22;28550;51.228;4.528;2024-01-30T06:29:08;10.50;97.70
42905;DHT22;28550;51.228;4.528;2024-01-30T06:31:42;10.60;97.10
42905;DHT22;28550;51.228;4.528;2024-01-30T06:34:09;10.70;95.50
42905;DHT22;28550;51.228;4.528;2024-01-30T06:36:38;10.60;97.20
42905;DHT22;28550;51.228;4.528;2024-01-30T06:39:07;10.60;98.10
42905;DHT22;28550;51.228;4.528;2024-01-30T06:41:33;10.70;96.70
42905;DHT22;28550;51.228;4.528;2024-01-30T06:44:20;10.80;94.40
42905;DHT22;28550;51.228;4.528;2024-01-30T06:46:59;10.90;95.20
42905;DHT22;28550;51.228;4.528;2024-01-30T06:49:25;10.90;92.10
42905;DHT22;28550;51.228;4.528;2024-01-30T06:52:05;11.10;90.70
42905;DHT22;28550;51.228;4.528;2024-01-30T06:58:38;11.20;89.50
42905;DHT22;28550;51.228;4.528;2024-01-30T07:01:32;11.20;89.10
42905;DHT22;28550;51.228;4.528;2024-01-30T07:04:12;11.40;84.80
42905;DHT22;28550;51.228;4.528;2024-01-30T07:06:46;11.30;82.00
42905;DHT22;28550;51.228;4.528;2024-01-30T07:09:12;11.30;82.30
42905;DHT22;28550;51.228;4.528;2024-01-30T07:11:39;11.40;80.80
42905;DHT22;28550;51.228;4.528;2024-01-30T07:17:32;11.50;77.20
42905;DHT22;28550;51.228;4.528;2024-01-30T07:20:05;11.70;69.00
42905;DHT22;28550;51.228;4.528;2024-01-30T07:54:09;11.70;77.60
42905;DHT22;28550;51.228;4.528;2024-01-30T07:56:42;11.80;68.30
42905;DHT22;28550;51.228;4.528;2024-01-30T07:59:18;11.80;75.50
42905;DHT22;28550;51.228;4.528;2024-01-30T09:11:25;12.30;60.60
42905;DHT22;28550;51.228;4.528;2024-01-30T09:14:11;12.30;59.70
42905;DHT22;28550;51.228;4.528;2024-01-30T09:16:37;12.30;62.80
42905;DHT22;28550;51.228;4.528;2024-01-30T09:19:24;12.40;55.30
42905;DHT22;28550;51.228;4.528;2024-01-30T09:28:57;12.20;71.90
42905;DHT22;28550;51.228;4.528;2024-01-30T09:35:25;12.50;64.40
42905;DHT22;28550;51.228;4.528;2024-01-30T10:03:44;12.40;80.50
42905;DHT22;28550;51.228;4.528;2024-01-30T10:06:35;12.40;78.80
42905;DHT22;28550;51.228;4.528;2024-01-30T10:09:57;12.40;80.80
42905;DHT22;28550;51.228;4.528;2024-01-30T10:12:54;12.30;83.50
42905;DHT22;28550;51.228;4.528;2024-01-30T10:15:21;12.40;84.90
42905;DHT22;28550;51.228;4.528;2024-01-30T10:17:52;12.50;78.80
42905;DHT22;28550;51.228;4.528;2024-01-30T10:20:39;12.50;77.10
42905;DHT22;28550;51.228;4.528;2024-01-30T10:23:07;12.50;80.70
42905;DHT22;28550;51.228;4.528;2024-01-30T10:25:35;12.60;82.30
42905;DHT22;28550;51.228;4.528;2024-01-30T10:28:01;12.60;78.50
42905;DHT22;28550;51.228;4.528;2024-01-30T10:40:09;12.20;72.20
42905;DHT22;28550;51.228;4.528;2024-01-30T10:42:45;12.30;65.70
42905;DHT22;28550;51.228;4.528;2024-01-30T10:45:14;12.20;55.10
42905;DHT22;28550;51.228;4.528;2024-01-30T10:47:49;12.10;33.90
42905;DHT22;28550;51.228;4.528;2024-01-30T10:50:16;12.10;36.00
42905;DHT22;28550;51.228;4.528;2024-01-30T10:52:43;12.10;33.00
42905;DHT22;28550;51.228;4.528;2024-01-30T10:55:12;12.10;23.40
42905;DHT22;28550;51.228;4.528;2024-01-30T10:57:45;12.10;8.10
42905;DHT22;28550;51.228;4.528;2024-01-30T11:00:14;12.10;1.00
42905;DHT22;28550;51.228;4.528;2024-01-30T11:02:46;12.00;1.00
42905;DHT22;28550;51.228;4.528;2024-01-30T11:05:14;12.00;1.00
42905;DHT22;28550;51.228;4.528;2024-01-30T11:07:48;12.00;1.00
42905;DHT22;28550;51.228;4.528;2024-01-30T11:10:15;11.90;1.00
42905;DHT22;28550;51.228;4.528;2024-01-30T11:12:41;11.80;1.00
42905;DHT22;28550;51.228;4.528;2024-01-30T11:15:12;11.70;1.00
42905;DHT22;28550;51.228;4.528;2024-01-30T11:17:52;11.70;1.00
42905;DHT22;28550;51.228;4.528;2024-01-30T11:20:29;11.80;1.00
42905;DHT22;28550;51.228;4.528;2024-01-30T11:23:02;12.00;1.00
42905;DHT22;28550;51.228;4.528;2024-01-30T11:25:32;12.40;1.00
42905;DHT22;28550;51.228;4.528;2024-01-30T11:27:58;12.90;1.00
42905;DHT22;28550;51.228;4.528;2024-01-30T11:30:31;13.30;1.00
42905;DHT22;28550;51.228;4.528;2024-01-30T11:33:05;13.30;1.00
42905;DHT22;28550;51.228;4.528;2024-01-30T11:35:33;13.70;1.00
42905;DHT22;28550;51.228;4.528;2024-01-30T11:38:09;13.70;99.90
42905;DHT22;28550;51.228;4.528;2024-01-30T11:40:37;14.00;99.90
42905;DHT22;28550;51.228;4.528;2024-01-30T11:43:05;14.40;99.90
42905;DHT22;28550;51.228;4.528;2024-01-30T11:45:31;14.70;99.90
42905;DHT22;28550;51.228;4.528;2024-01-30T11:47:58;14.60;1.00
42905;DHT22;28550;51.228;4.528;2024-01-30T11:50:25;14.40;99.90
42905;DHT22;28550;51.228;4.528;2024-01-30T11:52:51;14.00;1.00
42905;DHT22;28550;51.228;4.528;2024-01-30T11:55:17;14.00;1.00
42905;DHT22;28550;51.228;4.528;2024-01-30T11:57:49;13.80;99.90
42905;DHT22;28550;51.228;4.528;2024-01-30T12:00:18;13.50;33.50
42905;DHT22;28550;51.228;4.528;2024-01-30T12:02:49;13.20;1.00
42905;DHT22;28550;51.228;4.528;2024-01-30T12:05:15;12.90;1.00
42905;DHT22;28550;51.228;4.528;2024-01-30T12:07:44;12.90;99.90
42905;DHT22;28550;51.228;4.528;2024-01-30T12:10:13;12.90;1.00
42905;DHT22;28550;51.228;4.528;2024-01-30T12:12:41;12.90;74.10
42905;DHT22;28550;51.228;4.528;2024-01-30T12:15:13;12.80;1.00
42905;DHT22;28550;51.228;4.528;2024-01-30T12:17:39;12.70;99.90
42905;DHT22;28550;51.228;4.528;2024-01-30T12:22:40;12.80;1.00
42905;DHT22;28550;51.228;4.528;2024-01-30T12:25:16;12.90;99.90
42905;DHT22;28550;51.228;4.528;2024-01-30T12:27:50;12.90;99.90
42905;DHT22;28550;51.228;4.528;2024-01-30T12:30:35;12.80;99.90
42905;DHT22;28550;51.228;4.528;2024-01-30T12:33:02;12.60;1.00
42905;DHT22;28550;51.228;4.528;2024-01-30T12:35:29;12.40;99.90
42905;DHT22;28550;51.228;4.528;2024-01-30T12:37:55;12.40;99.90
42905;DHT22;28550;51.228;4.528;2024-01-30T12:40:21;12.50;99.90
42905;DHT22;28550;51.228;4.528;2024-01-30T12:42:47;12.30;99.90
42905;DHT22;28550;51.228;4.528;2024-01-30T12:45:15;12.20;99.90
42905;DHT22;28550;51.228;4.528;2024-01-30T12:47:43;12.10;99.90
42905;DHT22;28550;51.228;4.528;2024-01-30T12:50:09;12.10;99.90
42905;DHT22;28550;51.228;4.528;2024-01-30T12:52:35;12.10;99.90
42905;DHT22;28550;51.228;4.528;2024-01-30T12:55:01;12.10;99.90
42905;DHT22;28550;51.228;4.528;2024-01-30T13:00:05;12.10;99.90
42905;DHT22;28550;51.228;4.528;2024-01-30T13:02:34;12.10;99.90
42905;DHT22;28550;51.228;4.528;2024-01-30T13:05:05;12.10;99.90
42905;DHT22;28550;51.228;4.528;2024-01-30T13:07:31;12.10;99.90
42905;DHT22;28550;51.228;4.528;2024-01-30T13:09:57;12.00;99.90
42905;DHT22;28550;51.228;4.528;2024-01-30T13:12:29;11.90;1.00
42905;DHT22;28550;51.228;4.528;2024-01-30T13:14:58;11.80;1.00
42905;DHT22;28550;51.228;4.528;2024-01-30T13:17:26;11.80;1.00
42905;DHT22;28550;51.228;4.528;2024-01-30T13:19:52;11.60;1.00
42905;DHT22;28550;51.228;4.528;2024-01-30T13:22:19;11.50;1.00
42905;DHT22;28550;51.228;4.528;2024-01-30T13:24:47;11.50;1.00
42905;DHT22;28550;51.228;4.528;2024-01-30T13:27:17;11.40;1.00
42905;DHT22;28550;51.228;4.528;2024-01-30T13:29:43;11.40;1.00
42905;DHT22;28550;51.228;4.528;2024-01-30T13:34:53;11.20;1.00
42905;DHT22;28550;51.228;4.528;2024-01-30T13:37:19;11.20;1.00
42905;DHT22;28550;51.228;4.528;2024-01-30T13:39:45;11.00;1.00
42905;DHT22;28550;51.228;4.528;2024-01-30T13:42:11;11.00;1.00
42905;DHT22;28550;51.228;4.528;2024-01-30T13:44:37;10.80;1.00
42905;DHT22;28550;51.228;4.528;2024-01-30T13:47:02;10.70;1.00
42905;DHT22;28550;51.228;4.528;2024-01-30T13:49:56;10.60;1.00
42905;DHT22;28550;51.228;4.528;2024-01-30T13:52:23;10.70;1.00
42905;DHT22;28550;51.228;4.528;2024-01-30T13:54:49;10.60;1.00
42905;DHT22;28550;51.228;4.528;2024-01-30T13:57:15;10.60;1.00
42905;DHT22;28550;51.228;4.528;2024-01-30T13:59:40;10.60;1.00
42905;DHT22;28550;51.228;4.528;2024-01-30T14:02:06;10.50;1.00
42905;DHT22;28550;51.228;4.528;2024-01-30T14:04:33;10.50;1.00
42905;DHT22;28550;51.228;4.528;2024-01-30T14:07:04;10.50;1.00
42905;DHT22;28550;51.228;4.528;2024-01-30T14:09:31;10.50;1.00
42905;DHT22;28550;51.228;4.528;2024-01-30T14:11:59;10.50;1.00
42905;DHT22;28550;51.228;4.528;2024-01-30T14:14:24;10.40;1.00
42905;DHT22;28550;51.228;4.528;2024-01-30T14:16:50;10.30;1.00
42905;DHT22;28550;51.228;4.528;2024-01-30T14:19:16;10.30;1.00
42905;DHT22;28550;51.228;4.528;2024-01-30T14:21:45;10.40;1.00
42905;DHT22;28550;51.228;4.528;2024-01-30T14:24:10;10.30;1.00
42905;DHT22;28550;51.228;4.528;2024-01-30T14:26:36;10.40;1.00
42905;DHT22;28550;51.228;4.528;2024-01-30T14:29:02;10.30;1.00
42905;DHT22;28550;51.228;4.528;2024-01-30T14:31:28;10.20;1.00
42905;DHT22;28550;51.228;4.528;2024-01-30T14:33:55;10.20;1.00
42905;DHT22;28550;51.228;4.528;2024-01-30T14:36:21;10.10;1.00
42905;DHT22;28550;51.228;4.528;2024-01-30T14:38:50;10.10;1.00
42905;DHT22;28550;51.228;4.528;2024-01-30T14:41:17;10.10;1.00
42905;DHT22;28550;51.228;4.528;2024-01-30T14:43:42;10.10;1.00
42905;DHT22;28550;51.228;4.528;2024-01-30T14:46:08;10.10;1.00
42905;DHT22;28550;51.228;4.528;2024-01-30T14:48:34;10.10;1.00
42905;DHT22;28550;51.228;4.528;2024-01-30T14:51:00;10.10;1.00
42905;DHT22;28550;51.228;4.528;2024-01-30T14:53:25;10.10;1.00
42905;DHT22;28550;51.228;4.528;2024-01-30T14:55:51;10.10;1.00
42905;DHT22;28550;51.228;4.528;2024-01-30T14:58:17;10.10;1.00
42905;DHT22;28550;51.228;4.528;2024-01-30T15:00:45;10.20;1.00
42905;DHT22;28550;51.228;4.528;2024-01-30T15:03:17;10.30;1.00
42905;DHT22;28550;51.228;4.528;2024-01-30T15:05:48;10.20;1.00
42905;DHT22;28550;51.228;4.528;2024-01-30T15:08:14;10.20;1.00
42905;DHT22;28550;51.228;4.528;2024-01-30T15:10:40;10.10;1.00
42905;DHT22;28550;51.228;4.528;2024-01-30T15:13:05;10.10;1.00
42905;DHT22;28550;51.228;4.528;2024-01-30T15:15:31;10.10;1.00
42905;DHT22;28550;51.228;4.528;2024-01-30T15:18:00;10.10;1.00
42905;DHT22;28550;51.228;4.528;2024-01-30T15:20:35;10.10;1.00
42905;DHT22;28550;51.228;4.528;2024-01-30T15:23:01;10.20;1.00
42905;DHT22;28550;51.228;4.528;2024-01-30T15:25:33;10.10;1.00
42905;DHT22;28550;51.228;4.528;2024-01-30T15:28:14;10.10;1.80
42905;DHT22;28550;51.228;4.528;2024-01-30T15:30:40;10.10;1.00
42905;DHT22;28550;51.228;4.528;2024-01-30T15:33:10;10.00;10.60
42905;DHT22;28550;51.228;4.528;2024-01-30T15:35:36;10.00;7.20
42905;DHT22;28550;51.228;4.528;2024-01-30T15:38:04;9.90;15.00
42905;DHT22;28550;51.228;4.528;2024-01-30T15:40:32;9.90;16.80
42905;DHT22;28550;51.228;4.528;2024-01-30T15:42:58;9.90;15.90
42905;DHT22;28550;51.228;4.528;2024-01-30T15:45:28;9.80;19.10
42905;DHT22;28550;51.228;4.528;2024-01-30T15:47:53;9.70;25.50
42905;DHT22;28550;51.228;4.528;2024-01-30T15:50:19;9.70;24.30
42905;DHT22;28550;51.228;4.528;2024-01-30T15:52:45;9.80;24.10
42905;DHT22;28550;51.228;4.528;2024-01-30T15:55:10;9.70;26.30
42905;DHT22;28550;51.228;4.528;2024-01-30T15:57:37;9.70;28.30
42905;DHT22;28550;51.228;4.528;2024-01-30T16:00:03;9.70;22.00
42905;DHT22;28550;51.228;4.528;2024-01-30T16:02:30;9.70;24.90
42905;DHT22;28550;51.228;4.528;2024-01-30T16:04:56;9.70;29.40
42905;DHT22;28550;51.228;4.528;2024-01-30T16:07:22;9.60;31.40
42905;DHT22;28550;51.228;4.528;2024-01-30T16:09:47;9.70;28.40
42905;DHT22;28550;51.228;4.528;2024-01-30T16:12:13;9.70;26.30
42905;DHT22;28550;51.228;4.528;2024-01-30T16:14:39;9.70;22.50
42905;DHT22;28550;51.228;4.528;2024-01-30T16:17:06;9.70;28.00
42905;DHT22;28550;51.228;4.528;2024-01-30T16:19:33;9.60;33.70
42905;DHT22;28550;51.228;4.528;2024-01-30T16:21:58;9.60;39.40
42905;DHT22;28550;51.228;4.528;2024-01-30T16:24:24;9.50;46.50
42905;DHT22;28550;51.228;4.528;2024-01-30T16:26:52;9.30;56.70
42905;DHT22;28550;51.228;4.528;2024-01-30T16:29:17;9.30;65.80
42905;DHT22;28550;51.228;4.528;2024-01-30T16:31:44;9.30;70.30
42905;DHT22;28550;51.228;4.528;2024-01-30T16:34:11;9.30;70.80
42905;DHT22;28550;51.228;4.528;2024-01-30T16:36:40;9.30;71.80
42905;DHT22;28550;51.228;4.528;2024-01-30T16:39:09;9.20;79.80
42905;DHT22;28550;51.228;4.528;2024-01-30T16:41:35;9.20;78.90
42905;DHT22;28550;51.228;4.528;2024-01-30T16:44:02;9.20;78.60
42905;DHT22;28550;51.228;4.528;2024-01-30T16:46:28;9.20;79.70
42905;DHT22;28550;51.228;4.528;2024-01-30T16:48:54;9.10;81.50
42905;DHT22;28550;51.228;4.528;2024-01-30T16:51:21;9.20;78.40
42905;DHT22;28550;51.228;4.528;2024-01-30T16:53:47;9.20;75.20
42905;DHT22;28550;51.228;4.528;2024-01-30T16:56:14;9.20;79.40
42905;DHT22;28550;51.228;4.528;2024-01-30T16:58:40;9.20;77.30
42905;DHT22;28550;51.228;4.528;2024-01-30T17:01:06;9.20;76.40
42905;DHT22;28550;51.228;4.528;2024-01-30T17:03:31;9.30;75.00
42905;DHT22;28550;51.228;4.528;2024-01-30T17:05:57;9.40;67.70
42905;DHT22;28550;51.228;4.528;2024-01-30T17:08:30;9.40;62.70
42905;DHT22;28550;51.228;4.528;2024-01-30T17:11:02;9.30;66.00
42905;DHT22;28550;51.228;4.528;2024-01-30T17:13:28;9.40;65.30
42905;DHT22;28550;51.228;4.528;2024-01-30T17:15:54;9.40;55.90
42905;DHT22;28550;51.228;4.528;2024-01-30T17:18:20;9.40;60.00
42905;DHT22;28550;51.228;4.528;2024-01-30T17:20:45;9.30;61.20
42905;DHT22;28550;51.228;4.528;2024-01-30T17:23:11;9.20;70.70
42905;DHT22;28550;51.228;4.528;2024-01-30T17:25:38;9.30;66.40
42905;DHT22;28550;51.228;4.528;2024-01-30T17:28:04;9.30;64.10
42905;DHT22;28550;51.228;4.528;2024-01-30T17:30:30;9.20;64.70
42905;DHT22;28550;51.228;4.528;2024-01-30T17:32:56;9.40;60.40
42905;DHT22;28550;51.228;4.528;2024-01-30T17:35:24;9.30;59.60
42905;DHT22;28550;51.228;4.528;2024-01-30T17:37:57;9.20;65.80
42905;DHT22;28550;51.228;4.528;2024-01-30T17:40:23;9.30;62.10
42905;DHT22;28550;51.228;4.528;2024-01-30T17:42:51;9.20;65.40
42905;DHT22;28550;51.228;4.528;2024-01-30T17:45:17;9.20;69.80
42905;DHT22;28550;51.228;4.528;2024-01-30T17:47:43;9.20;62.10
42905;DHT22;28550;51.228;4.528;2024-01-30T17:50:09;9.20;67.90
42905;DHT22;28550;51.228;4.528;2024-01-30T17:52:35;9.20;71.20
42905;DHT22;28550;51.228;4.528;2024-01-30T17:55:00;9.20;69.80
42905;DHT22;28550;51.228;4.528;2024-01-30T17:57:26;9.20;70.00
42905;DHT22;28550;51.228;4.528;2024-01-30T17:59:52;9.30;64.50
42905;DHT22;28550;51.228;4.528;2024-01-30T18:02:18;9.30;66.10
42905;DHT22;28550;51.228;4.528;2024-01-30T18:04:43;9.20;72.50
42905;DHT22;28550;51.228;4.528;2024-01-30T18:07:09;9.30;71.60
42905;DHT22;28550;51.228;4.528;2024-01-30T18:09:35;9.30;72.50
42905;DHT22;28550;51.228;4.528;2024-01-30T18:12:01;9.20;80.70
42905;DHT22;28550;51.228;4.528;2024-01-30T18:14:27;9.20;82.30
42905;DHT22;28550;51.228;4.528;2024-01-30T18:16:53;9.20;85.40
42905;DHT22;28550;51.228;4.528;2024-01-30T18:19:19;9.10;91.00
42905;DHT22;28550;51.228;4.528;2024-01-30T18:21:46;9.00;91.60
42905;DHT22;28550;51.228;4.528;2024-01-30T18:24:11;9.00;92.60
42905;DHT22;28550;51.228;4.528;2024-01-30T18:26:37;8.90;94.90
42905;DHT22;28550;51.228;4.528;2024-01-30T18:29:03;8.90;95.20
42905;DHT22;28550;51.228;4.528;2024-01-30T18:31:30;8.90;94.80
42905;DHT22;28550;51.228;4.528;2024-01-30T18:33:55;8.90;94.80
42905;DHT22;28550;51.228;4.528;2024-01-30T18:36:22;9.00;94.80
42905;DHT22;28550;51.228;4.528;2024-01-30T18:38:49;8.90;96.90
42905;DHT22;28550;51.228;4.528;2024-01-30T18:41:15;8.80;97.40
42905;DHT22;28550;51.228;4.528;2024-01-30T18:43:41;8.90;95.70
42905;DHT22;28550;51.228;4.528;2024-01-30T18:46:09;9.00;95.10
42905;DHT22;28550;51.228;4.528;2024-01-30T18:48:36;8.90;96.50
42905;DHT22;28550;51.228;4.528;2024-01-30T18:51:05;8.90;98.00
42905;DHT22;28550;51.228;4.528;2024-01-30T18:53:30;8.80;98.60
42905;DHT22;28550;51.228;4.528;2024-01-30T18:55:56;8.80;99.40
42905;DHT22;28550;51.228;4.528;2024-01-30T18:58:22;8.90;97.50
42905;DHT22;28550;51.228;4.528;2024-01-30T19:00:51;8.80;97.90
42905;DHT22;28550;51.228;4.528;2024-01-30T19:03:17;8.80;99.10
42905;DHT22;28550;51.228;4.528;2024-01-30T19:05:46;8.70;99.90
42905;DHT22;28550;51.228;4.528;2024-01-30T19:08:12;8.80;99.90
42905;DHT22;28550;51.228;4.528;2024-01-30T19:10:38;8.70;99.90
42905;DHT22;28550;51.228;4.528;2024-01-30T19:13:04;8.80;99.90
42905;DHT22;28550;51.228;4.528;2024-01-30T19:15:34;8.70;99.90
42905;DHT22;28550;51.228;4.528;2024-01-30T19:18:00;8.70;99.90
42905;DHT22;28550;51.228;4.528;2024-01-30T19:20:27;8.70;99.90
42905;DHT22;28550;51.228;4.528;2024-01-30T19:22:52;8.70;99.90
42905;DHT22;28550;51.228;4.528;2024-01-30T19:25:19;8.70;99.90
42905;DHT22;28550;51.228;4.528;2024-01-30T19:27:45;8.80;99.90
42905;DHT22;28550;51.228;4.528;2024-01-30T19:30:12;8.80;99.90
42905;DHT22;28550;51.228;4.528;2024-01-30T19:32:39;8.70;99.90
42905;DHT22;28550;51.228;4.528;2024-01-30T19:35:05;8.80;99.90
42905;DHT22;28550;51.228;4.528;2024-01-30T19:37:31;8.70;99.90
42905;DHT22;28550;51.228;4.528;2024-01-30T19:39:59;8.70;99.90
42905;DHT22;28550;51.228;4.528;2024-01-30T19:42:25;8.80;99.90
42905;DHT22;28550;51.228;4.528;2024-01-30T19:44:52;8.80;99.90